Onia, Arkansas
Current Conditions -  °F | °C
As of 10:55 AM on Friday 28 Nov 2014 (Local Time) from KCCA Reporting Station
NA  
Wind Chill: 41°   Ceiling: NA
Heat Index: 46°   Visibility: 8mi
Dew Point: 32°   Wind: 10mph
Humidity: 57%   Direction: 170°S
Pressure: 30.28"   Gusts: NA
Location:  35.92°N, 92.33°W
Report Text: KCCA 281655Z AUTO 17009KT 8SM 08/00 A3028 RMK AO2
Loading
Personal Weather Stations






























Interactive Weather Map New forecast layout! Learn more

10-Day Weather Forecast

Advertisements
Track Severe Weather on mobile